KRME

Griffiss International Airport

Rome, New York, USA
METAR KRME 191453Z 09008KT 9SM OVC032 M07/M11 A2998 RMK AO2 SLP158 T10721106 58000
Observed Flight Rules
Jan-19 @ 14:53 UTC (33 minutes ago) Visual Flight Rules
Wind Visibility Clouds
90° at 8 knots 9 miles
  • Overcast at 3,200' AGL
Temperatures Readings
Current -7°C / 19°F
Dewpoint -11°C / 12°F
Humidity 73%
Altimeter 29.98" Hg
Pressure 1015.8 hPa
Elevation 154
METAR KRME 191453Z 09008KT 9SM OVC032 M07/M11 A2998 RMK AO2 SLP158 T10721106 58000
Observed Flight Rules
Jan-19 @ 14:53 UTC
(33 minutes ago)
VFR
Wind Visibility
90° at 8 knots 9 miles
Clouds
  • Overcast at 3,200' AGL
Temperature Dewpoint
-7°C / 19°F -11°C / 12°F
Humidity Altimeter Pressure
73% 29.98" Hg 1015.8 hPa